Time;durP1;ratioP1;P1;durP2;ratioP2;P2;SDS_P1;SDS_P2;PMS_P1;PMS_P2;Temp;Humidity;BMP_temperature;BMP_pressure;BME280_temperature;BME280_humidity;BME280_pressure;Samples;Min_cycle;Max_cycle;Signal;HPM_P1;HPM_P2
2023/12/02 00:01:01;;;;;;;;;;;;;;;5.51;74.46;98240.44;4456910;32;34169;-88
2023/12/02 00:03:28;;;;;;;;;;;;;;;5.40;73.69;98239.16;4464472;32;33274;-88
2023/12/02 00:05:56;;;;;;;;;;;;;;;5.52;74.37;98247.37;4455840;32;32970;-88
2023/12/02 00:08:23;;;;;;;;;;;;;;;5.59;74.02;98240.91;4464755;32;32329;-89
2023/12/02 00:10:51;;;;;;;;;;;;;;;5.69;73.70;98231.66;4456262;32;34046;-89
2023/12/02 00:13:18;;;;;;;;;;;;;;;5.94;72.54;98222.66;4468885;32;33794;-89
2023/12/02 00:15:46;;;;;;;;;;;;;;;6.04;72.07;98224.72;4461014;32;33486;-89
2023/12/02 00:18:13;;;;;;;;;;;;;;;6.27;71.11;98215.72;4462476;32;32566;-89
2023/12/02 00:20:41;;;;;;;;;;;;;;;5.29;74.55;98235.38;4462395;32;33141;-89
2023/12/02 00:23:08;;;;;;;;;;;;;;;5.45;74.43;98243.34;4466159;32;33046;-89
2023/12/02 00:25:36;;;;;;;;;;;;;;;5.75;73.48;98246.25;4460727;32;32617;-88
2023/12/02 00:28:03;;;;;;;;;;;;;;;5.88;72.32;98248.19;4458740;32;31146;-89
2023/12/02 00:30:31;;;;;;;;;;;;;;;5.82;72.87;98235.38;4472745;31;34175;-89
2023/12/02 00:32:59;;;;;;;;;;;;;;;5.89;72.58;98236.81;4471378;32;33802;-89
2023/12/02 00:35:26;;;;;;;;;;;;;;;5.76;73.37;98240.09;4454616;32;33633;-89
2023/12/02 00:37:54;;;;;;;;;;;;;;;5.90;72.67;98235.88;4469293;32;34147;-88
2023/12/02 00:40:21;;;;;;;;;;;;;;;6.09;72.20;98219.25;4460189;32;32170;-88
2023/12/02 00:42:50;;;;;;;;;;;;;;;5.02;75.75;98229.66;4462425;31;32991;-88
2023/12/02 00:45:17;;;;;;;;;;;;;;;5.56;73.91;98222.75;4470665;31;33252;-88
2023/12/02 00:47:45;;;;;;;;;;;;;;;6.04;72.58;98224.72;4462742;32;31461;-87
2023/12/02 00:50:12;;;;;;;;;;;;;;;6.15;71.84;98227.66;4454773;32;32953;-87
2023/12/02 00:52:40;;;;;;;;;;;;;;;5.93;72.85;98223.56;4456463;32;33540;-87
2023/12/02 00:55:07;;;;;;;;;;;;;;;5.89;72.83;98221.09;4471466;31;33112;-87
2023/12/02 00:57:35;;;;;;;;;;;;;;;5.64;73.46;98220.56;4448320;32;35210;-87
2023/12/02 01:00:04;;;;;;;;;;;;;;;5.75;72.88;98226.16;4461235;32;33959;-88
2023/12/02 01:02:31;;;;;;;;;;;;;;;5.74;73.71;98248.00;4473079;31;33709;-87
2023/12/02 01:04:59;;;;;;;;;;;;;;;5.97;72.51;98240.81;4458950;32;34600;-88
2023/12/02 01:07:26;;;;;;;;;;;;;;;6.25;71.58;98211.44;4469578;32;33068;-87
2023/12/02 01:09:54;;;;;;;;;;;;;;;5.97;71.16;98206.78;4453633;32;33975;-88
2023/12/02 01:12:21;;;;;;;;;;;;;;;6.04;72.01;98210.78;4459066;32;32966;-88
2023/12/02 01:14:48;;;;;;;;;;;;;;;6.32;71.41;98208.44;4458988;32;32933;-89
2023/12/02 01:17:16;;;;;;;;;;;;;;;6.15;72.28;98216.31;4465495;32;33418;-88
2023/12/02 01:19:44;;;;;;;;;;;;;;;5.96;72.69;98224.25;4458281;32;34037;-88
2023/12/02 01:22:12;;;;;;;;;;;;;;;6.26;71.96;98203.50;4476612;32;33098;-89
2023/12/02 01:24:40;;;;;;;;;;;;;;;6.56;70.74;98193.22;4461485;32;34888;-89
2023/12/02 01:27:07;;;;;;;;;;;;;;;6.35;70.89;98200.41;4452391;32;30730;-89
2023/12/02 01:29:34;;;;;;;;;;;;;;;6.31;71.38;98214.59;4458554;32;33284;-89
2023/12/02 01:32:02;;;;;;;;;;;;;;;6.04;72.67;98214.25;4471827;31;33357;-90
2023/12/02 01:34:30;;;;;;;;;;;;;;;6.47;71.12;98198.94;4460932;32;34227;-90
2023/12/02 01:36:58;;;;;;;;;;;;;;;6.29;71.51;98198.12;4457221;32;33480;-91
2023/12/02 01:39:26;;;;;;;;;;;;;;;6.30;72.25;98183.22;4470384;31;33523;-89
2023/12/02 01:41:54;;;;;;;;;;;;;;;6.53;70.75;98190.72;4445504;32;34930;-89
2023/12/02 01:44:22;;;;;;;;;;;;;;;6.32;71.76;98194.50;4452870;32;34367;-89
2023/12/02 01:46:50;;;;;;;;;;;;;;;6.14;72.38;98194.50;4461923;32;32746;-89
2023/12/02 01:49:18;;;;;;;;;;;;;;;6.07;71.92;98193.13;4445644;32;32836;-90
2023/12/02 01:51:46;;;;;;;;;;;;;;;6.18;72.49;98187.34;4443258;32;34125;-89
2023/12/02 01:54:19;;;;;;;;;;;;;;;6.11;72.21;98194.66;4462206;32;33911;-90
2023/12/02 01:56:47;;;;;;;;;;;;;;;5.86;73.87;98195.03;4449782;32;33517;-90
2023/12/02 01:59:18;;;;;;;;;;;;;;;6.41;71.60;98197.50;4448843;32;34730;-89
2023/12/02 02:01:46;;;;;;;;;;;;;;;6.49;71.44;98178.72;4459596;32;33665;-90
2023/12/02 02:04:15;;;;;;;;;;;;;;;6.40;71.72;98173.94;4452776;32;32920;-89
2023/12/02 02:06:44;;;;;;;;;;;;;;;6.04;72.97;98176.72;4456861;32;33549;-89
2023/12/02 02:09:12;;;;;;;;;;;;;;;6.21;72.65;98174.06;4477057;31;35509;-89
2023/12/02 02:11:41;;;;;;;;;;;;;;;6.23;72.06;98153.88;4452391;32;34567;-88
2023/12/02 02:14:12;;;;;;;;;;;;;;;6.09;72.38;98159.00;4460232;32;34646;-88
2023/12/02 02:16:41;;;;;;;;;;;;;;;6.01;73.10;98140.19;4450982;32;33993;-88
2023/12/02 02:19:08;;;;;;;;;;;;;;;6.14;72.72;98136.84;4453036;32;34254;-89
2023/12/02 02:21:36;;;;;;;;;;;;;;;6.01;72.83;98124.47;4463044;32;32855;-89
2023/12/02 02:24:04;;;;;;;;;;;;;;;6.16;72.32;98147.25;4462836;32;32778;-87
2023/12/02 02:26:31;;;;;;;;;;;;;;;5.90;73.75;98175.62;4462392;32;33829;-88
2023/12/02 02:28:58;;;;;;;;;;;;;;;6.50;71.75;98142.84;4459524;32;32510;-88
2023/12/02 02:31:26;;;;;;;;;;;;;;;6.50;71.21;98140.22;4472762;32;34320;-87
2023/12/02 02:33:53;;;;;;;;;;;;;;;5.99;73.46;98163.00;4463810;32;34205;-88
2023/12/02 02:36:21;;;;;;;;;;;;;;;5.92;74.21;98152.00;4446756;32;32211;-89
2023/12/02 02:38:49;;;;;;;;;;;;;;;6.12;73.33;98143.09;4471216;32;34763;-89
2023/12/02 02:41:16;;;;;;;;;;;;;;;6.15;73.13;98132.47;4450877;32;33568;-89
2023/12/02 02:43:43;;;;;;;;;;;;;;;5.85;74.13;98138.34;4463105;32;32835;-89
2023/12/02 02:46:12;;;;;;;;;;;;;;;6.32;72.40;98149.94;4465215;32;32723;-87
2023/12/02 02:48:40;;;;;;;;;;;;;;;5.69;74.24;98141.78;4462792;32;32908;-88
2023/12/02 02:51:08;;;;;;;;;;;;;;;6.13;72.32;98139.56;4471772;32;34182;-90
2023/12/02 02:53:35;;;;;;;;;;;;;;;6.23;72.91;98134.69;4449590;32;32554;-90
2023/12/02 02:56:04;;;;;;;;;;;;;;;6.28;72.59;98145.78;4464794;32;33410;-90
2023/12/02 02:58:34;;;;;;;;;;;;;;;6.24;72.72;98141.63;4463678;32;34803;-90
2023/12/02 03:01:05;;;;;;;;;;;;;;;6.31;72.15;98149.06;4460636;32;33109;-89
2023/12/02 03:03:32;;;;;;;;;;;;;;;6.33;72.59;98141.97;4458748;32;34732;-90
2023/12/02 03:06:00;;;;;;;;;;;;;;;6.55;70.62;98128.59;4451540;32;33195;-91
2023/12/02 03:08:27;;;;;;;;;;;;;;;6.58;70.89;98124.94;4454871;32;33217;-91
2023/12/02 03:10:55;;;;;;;;;;;;;;;6.51;71.74;98127.06;4463365;32;34072;-89
2023/12/02 03:13:23;;;;;;;;;;;;;;;6.87;70.58;98120.72;4462780;32;34464;-89
2023/12/02 03:15:51;;;;;;;;;;;;;;;6.84;70.51;98116.50;4464550;32;34034;-89
2023/12/02 03:18:18;;;;;;;;;;;;;;;6.67;71.17;98124.44;4461161;32;33617;-88
2023/12/02 03:20:46;;;;;;;;;;;;;;;6.84;70.48;98126.16;4457968;32;32962;-87
2023/12/02 03:23:15;;;;;;;;;;;;;;;6.68;70.83;98139.22;4452684;32;34429;-88
2023/12/02 03:25:43;;;;;;;;;;;;;;;6.56;71.57;98126.81;4452402;32;33480;-88
2023/12/02 03:28:12;;;;;;;;;;;;;;;6.68;71.16;98120.88;4456278;32;34170;-88
2023/12/02 03:30:40;;;;;;;;;;;;;;;6.39;71.75;98139.03;4460536;32;33886;-87
2023/12/02 03:33:07;;;;;;;;;;;;;;;6.35;71.87;98132.25;4450347;32;32549;-89
2023/12/02 03:35:35;;;;;;;;;;;;;;;6.53;71.54;98138.28;4447347;32;32993;-88
2023/12/02 03:38:03;;;;;;;;;;;;;;;6.51;71.03;98124.44;4447255;32;34090;-88
2023/12/02 03:40:30;;;;;;;;;;;;;;;6.66;71.18;98113.09;4458671;32;34778;-89
2023/12/02 03:42:58;;;;;;;;;;;;;;;6.56;71.60;98105.81;4449098;32;33677;-88
2023/12/02 03:45:26;;;;;;;;;;;;;;;6.61;71.43;98111.66;4462074;32;32046;-87
2023/12/02 03:47:54;;;;;;;;;;;;;;;6.30;71.47;98097.56;4452679;32;32838;-88
2023/12/02 03:50:21;;;;;;;;;;;;;;;6.30;72.47;98112.47;4460982;32;34092;-88
2023/12/02 03:52:49;;;;;;;;;;;;;;;6.87;70.38;98086.59;4448986;32;33633;-88
2023/12/02 03:55:18;;;;;;;;;;;;;;;6.37;71.53;98090.25;4464561;32;32790;-87
2023/12/02 03:57:45;;;;;;;;;;;;;;;6.25;71.89;98096.13;4470492;32;34081;-88
2023/12/02 04:00:13;;;;;;;;;;;;;;;6.51;71.99;98082.47;4475207;32;35087;-87
2023/12/02 04:02:41;;;;;;;;;;;;;;;6.53;71.49;98100.75;4461363;32;34482;-90
2023/12/02 04:05:10;;;;;;;;;;;;;;;6.39;72.06;98098.84;4448464;32;33450;-92
2023/12/02 04:07:38;;;;;;;;;;;;;;;6.48;71.54;98108.00;4446180;32;33337;-92
2023/12/02 04:10:36;;;;;;;;;;;;;;;6.03;73.13;98102.53;4430962;32;34766;-90
2023/12/02 04:13:04;;;;;;;;;;;;;;;6.05;73.42;98105.06;4398881;32;33692;-90
2023/12/02 04:15:32;;;;;;;;;;;;;;;6.33;72.11;98101.81;4401422;32;33318;-90
2023/12/02 04:17:59;;;;;;;;;;;;;;;6.20;73.13;98104.22;4418607;32;33090;-90
2023/12/02 04:20:27;;;;;;;;;;;;;;;6.34;72.66;98101.72;4398456;32;33850;-91
2023/12/02 04:22:55;;;;;;;;;;;;;;;6.53;71.68;98116.47;4399842;32;33906;-91
2023/12/02 04:25:26;;;;;;;;;;;;;;;6.57;71.65;98104.88;4400414;32;32272;-91
2023/12/02 04:27:54;;;;;;;;;;;;;;;6.91;70.52;98096.84;4410166;32;34270;-90
2023/12/02 04:30:21;;;;;;;;;;;;;;;6.72;71.36;98101.41;4388356;32;33123;-90
2023/12/02 04:32:49;;;;;;;;;;;;;;;6.59;71.52;98111.72;4385658;32;33390;-90
2023/12/02 04:35:16;;;;;;;;;;;;;;;6.53;70.96;98108.59;4405370;32;33530;-91
2023/12/02 04:37:44;;;;;;;;;;;;;;;6.38;72.13;98107.66;4400838;32;34157;-91
2023/12/02 04:40:11;;;;;;;;;;;;;;;6.45;71.85;98108.16;4401106;32;34011;-88
2023/12/02 04:42:39;;;;;;;;;;;;;;;6.42;72.62;98101.31;4398956;32;34723;-88
2023/12/02 04:45:08;;;;;;;;;;;;;;;6.38;72.87;98097.16;4409218;32;32179;-88
2023/12/02 04:47:38;;;;;;;;;;;;;;;6.21;72.76;98095.44;4412304;32;33438;-88
2023/12/02 04:50:06;;;;;;;;;;;;;;;6.49;72.82;98086.94;4398600;32;34066;-88
2023/12/02 04:52:33;;;;;;;;;;;;;;;6.51;72.08;98081.63;4405742;32;34436;-88
2023/12/02 04:55:01;;;;;;;;;;;;;;;6.14;73.25;98091.47;4407502;32;32795;-88
2023/12/02 04:57:28;;;;;;;;;;;;;;;6.20;74.01;98082.44;4383766;32;33247;-89
2023/12/02 04:59:56;;;;;;;;;;;;;;;6.61;71.79;98078.41;4409773;32;33644;-89
2023/12/02 05:02:24;;;;;;;;;;;;;;;6.48;72.60;98081.78;4390569;32;33837;-90
2023/12/02 05:04:51;;;;;;;;;;;;;;;6.55;71.91;98062.16;4397432;32;33306;-89
2023/12/02 05:07:19;;;;;;;;;;;;;;;6.62;71.48;98058.28;4410427;32;33401;-88
2023/12/02 05:09:46;;;;;;;;;;;;;;;6.51;72.32;98065.91;4398404;32;33048;-88
2023/12/02 05:12:13;;;;;;;;;;;;;;;6.46;72.26;98068.78;4421535;32;33633;-89
2023/12/02 05:14:41;;;;;;;;;;;;;;;6.37;72.62;98059.63;4399317;32;34920;-89
2023/12/02 05:17:08;;;;;;;;;;;;;;;6.21;73.06;98063.16;4400978;32;33232;-88
2023/12/02 05:19:36;;;;;;;;;;;;;;;6.32;73.34;98055.56;4398437;32;33000;-89
2023/12/02 05:22:03;;;;;;;;;;;;;;;6.62;71.77;98063.53;4397052;32;33390;-88
2023/12/02 05:24:31;;;;;;;;;;;;;;;6.53;72.35;98059.63;4407710;32;32352;-89
2023/12/02 05:26:58;;;;;;;;;;;;;;;6.58;72.17;98069.88;4406914;32;33327;-88
2023/12/02 05:29:26;;;;;;;;;;;;;;;6.45;72.37;98063.59;4385335;32;34498;-86
2023/12/02 05:31:53;;;;;;;;;;;;;;;6.88;70.86;98055.06;4407638;32;34821;-86
2023/12/02 05:34:21;;;;;;;;;;;;;;;6.86;70.98;98046.41;4394228;32;33420;-89
2023/12/02 05:36:49;;;;;;;;;;;;;;;6.69;70.87;98057.00;4395980;32;34264;-90
2023/12/02 05:39:16;;;;;;;;;;;;;;;6.78;70.68;98053.00;4421073;32;34116;-90
2023/12/02 05:41:46;;;;;;;;;;;;;;;6.59;71.73;98048.78;4380570;32;32997;-91
2023/12/02 05:44:14;;;;;;;;;;;;;;;6.53;72.15;98056.16;4395992;32;32465;-89
2023/12/02 05:46:42;;;;;;;;;;;;;;;6.78;71.10;98063.50;4395496;32;33292;-90
2023/12/02 05:49:15;;;;;;;;;;;;;;;6.75;71.11;98064.53;4407825;32;33903;-91
2023/12/02 05:51:46;;;;;;;;;;;;;;;6.69;71.62;98075.34;4388712;32;35912;-90
2023/12/02 05:54:19;;;;;;;;;;;;;;;6.89;70.08;98072.47;4413678;32;34026;-90
2023/12/02 05:56:56;;;;;;;;;;;;;;;7.07;69.14;98064.47;4402126;32;33496;-91
2023/12/02 05:59:25;;;;;;;;;;;;;;;6.59;71.89;98051.41;4388230;32;34595;-91
2023/12/02 06:01:54;;;;;;;;;;;;;;;6.59;72.22;98055.81;4384481;32;34005;-92
2023/12/02 06:04:34;;;;;;;;;;;;;;;6.64;71.58;98056.41;4398397;32;33052;-89
2023/12/02 06:07:02;;;;;;;;;;;;;;;6.79;71.05;98042.47;4399857;32;32570;-88
2023/12/02 06:09:29;;;;;;;;;;;;;;;6.62;71.46;98047.78;4388198;32;32627;-89
2023/12/02 06:11:57;;;;;;;;;;;;;;;6.61;70.62;98060.06;4394906;32;33691;-89
2023/12/02 06:14:25;;;;;;;;;;;;;;;6.76;71.52;98066.22;4394954;32;33247;-90
2023/12/02 06:16:52;;;;;;;;;;;;;;;6.72;71.85;98080.44;4383954;32;33315;-89
2023/12/02 06:19:20;;;;;;;;;;;;;;;6.64;71.52;98093.13;4400899;32;32255;-89
2023/12/02 06:21:51;;;;;;;;;;;;;;;6.83;70.62;98093.78;4407351;32;35003;-90
2023/12/02 06:24:18;;;;;;;;;;;;;;;6.86;70.25;98088.37;4408110;32;32468;-89
2023/12/02 06:26:46;;;;;;;;;;;;;;;6.70;71.78;98092.81;4408129;32;34831;-89
2023/12/02 06:29:13;;;;;;;;;;;;;;;7.11;69.50;98097.50;4398285;32;34903;-89
2023/12/02 06:31:41;;;;;;;;;;;;;;;6.87;70.94;98097.09;4412363;32;34157;-93
2023/12/02 06:34:23;;;;;;;;;;;;;;;6.77;71.44;98112.50;4403785;32;33860;-90
2023/12/02 06:36:51;;;;;;;;;;;;;;;6.97;70.63;98105.31;4399059;32;33411;-90
2023/12/02 06:39:19;;;;;;;;;;;;;;;6.49;72.40;98115.78;4400268;32;33112;-90
2023/12/02 06:41:47;;;;;;;;;;;;;;;6.80;71.07;98117.59;4377111;32;33281;-91
2023/12/02 06:44:14;;;;;;;;;;;;;;;6.75;71.75;98127.50;4420345;32;32999;-89
2023/12/02 06:46:42;;;;;;;;;;;;;;;6.86;71.50;98109.38;4382235;32;33195;-91
2023/12/02 06:49:10;;;;;;;;;;;;;;;7.05;70.19;98100.47;4411352;32;32016;-89
2023/12/02 06:51:38;;;;;;;;;;;;;;;7.04;70.72;98101.41;4432238;32;33867;-88
2023/12/02 06:54:07;;;;;;;;;;;;;;;7.09;70.12;98096.75;4409208;32;33123;-89
2023/12/02 06:56:35;;;;;;;;;;;;;;;6.72;71.48;98106.66;4421794;32;34302;-91
2023/12/02 06:59:03;;;;;;;;;;;;;;;6.72;71.50;98101.41;4408671;32;34073;-91
2023/12/02 07:01:33;;;;;;;;;;;;;;;7.15;70.45;98089.34;4397014;32;35907;-91
2023/12/02 07:04:01;;;;;;;;;;;;;;;7.28;69.61;98089.50;4393414;32;32028;-91
2023/12/02 07:06:31;;;;;;;;;;;;;;;7.30;69.72;98103.37;4417030;32;33949;-91
2023/12/02 07:09:00;;;;;;;;;;;;;;;7.25;69.22;98109.84;4387052;32;33389;-91
2023/12/02 07:11:29;;;;;;;;;;;;;;;6.98;70.78;98109.59;4406676;32;34046;-90
2023/12/02 07:13:57;;;;;;;;;;;;;;;7.11;70.45;98098.34;4381347;32;33407;-89
2023/12/02 07:17:21;;;;;;;;;;;;;;;7.10;70.41;98101.06;4416738;32;32938;-89
2023/12/02 07:19:58;;;;;;;;;;;;;;;7.30;69.40;98102.53;4420016;32;34858;-88
2023/12/02 07:22:30;;;;;;;;;;;;;;;7.26;70.03;98094.00;4381663;32;33559;-89
2023/12/02 07:24:58;;;;;;;;;;;;;;;6.96;71.09;98101.84;4389781;32;30773;-88
2023/12/02 07:27:30;;;;;;;;;;;;;;;7.26;69.86;98095.78;4406734;32;34195;-88
2023/12/02 07:30:03;;;;;;;;;;;;;;;6.82;71.35;98097.34;4399727;32;34341;-88
2023/12/02 07:32:37;;;;;;;;;;;;;;;6.93;70.43;98084.50;4424481;32;33694;-86
2023/12/02 07:35:07;;;;;;;;;;;;;;;7.38;69.73;98085.41;4400754;32;33083;-86
2023/12/02 07:37:49;;;;;;;;;;;;;;;7.65;68.76;98084.75;4414892;32;34340;-86
2023/12/02 07:40:27;;;;;;;;;;;;;;;7.46;69.26;98086.75;4403059;32;34036;-87
2023/12/02 07:43:39;;;;;;;;;;;;;;;7.27;69.63;98086.97;4389272;32;34716;-87
2023/12/02 07:46:15;;;;;;;;;;;;;;;7.17;70.14;98070.91;4402825;32;36066;-86
2023/12/02 07:48:43;;;;;;;;;;;;;;;7.11;70.95;98081.75;4403338;32;31606;-90
2023/12/02 07:51:10;;;;;;;;;;;;;;;7.15;70.85;98070.16;4389210;32;31250;-88
2023/12/02 07:53:38;;;;;;;;;;;;;;;6.79;72.36;98066.06;4427569;32;34979;-86
2023/12/02 07:56:06;;;;;;;;;;;;;;;6.74;72.18;98089.09;4402137;32;34444;-88
2023/12/02 07:58:34;;;;;;;;;;;;;;;7.07;71.00;98062.69;4391162;32;32551;-89
2023/12/02 08:01:02;;;;;;;;;;;;;;;7.10;70.70;98074.81;4377804;32;33923;-88
2023/12/02 08:03:30;;;;;;;;;;;;;;;6.90;71.37;98079.41;4414276;32;36047;-84
2023/12/02 08:05:58;;;;;;;;;;;;;;;7.30;70.46;98077.12;4395460;32;34198;-85
2023/12/02 08:08:26;;;;;;;;;;;;;;;7.69;68.94;98078.34;4398330;32;33025;-85
2023/12/02 08:10:55;;;;;;;;;;;;;;;7.68;68.25;98072.25;4415543;32;33009;-84
2023/12/02 08:13:23;;;;;;;;;;;;;;;7.18;70.46;98083.09;4382407;32;33260;-83
2023/12/02 08:15:50;;;;;;;;;;;;;;;7.15;70.44;98086.72;4418994;32;33370;-83
2023/12/02 08:18:21;;;;;;;;;;;;;;;7.30;70.21;98092.88;4397999;32;33786;-85
2023/12/02 08:20:52;;;;;;;;;;;;;;;7.51;69.61;98095.22;4420860;32;34280;-84
2023/12/02 08:23:22;;;;;;;;;;;;;;;7.30;69.94;98103.37;4395924;32;31574;-84
2023/12/02 08:25:53;;;;;;;;;;;;;;;7.36;69.70;98112.72;4419715;32;31798;-85
2023/12/02 08:28:24;;;;;;;;;;;;;;;7.25;69.53;98108.06;4408560;32;32917;-86
2023/12/02 08:30:52;;;;;;;;;;;;;;;7.41;69.97;98118.53;4408736;32;33965;-86
2023/12/02 08:33:19;;;;;;;;;;;;;;;7.26;70.75;98122.88;4396073;32;32245;-87
2023/12/02 08:35:47;;;;;;;;;;;;;;;7.35;69.00;98143.34;4407468;32;33017;-87
2023/12/02 08:38:16;;;;;;;;;;;;;;;7.14;70.91;98149.81;4412081;32;32723;-86
2023/12/02 08:40:43;;;;;;;;;;;;;;;6.96;71.33;98140.34;4394498;32;33949;-84
2023/12/02 08:43:11;;;;;;;;;;;;;;;7.09;71.25;98136.13;4406474;32;36502;-86
2023/12/02 08:45:40;;;;;;;;;;;;;;;7.62;69.69;98126.94;4431090;32;33112;-86
2023/12/02 08:48:07;;;;;;;;;;;;;;;7.36;70.49;98118.81;4398689;32;31785;-86
2023/12/02 08:50:35;;;;;;;;;;;;;;;7.16;71.27;98119.06;4382421;32;33110;-86
2023/12/02 08:53:03;;;;;;;;;;;;;;;7.31;71.03;98125.22;4399943;32;32944;-86
2023/12/02 08:55:30;;;;;;;;;;;;;;;7.37;70.36;98128.38;4423827;32;33182;-86
2023/12/02 08:58:04;;;;;;;;;;;;;;;7.25;70.96;98122.97;4408798;32;34307;-86
2023/12/02 09:00:34;;;;;;;;;;;;;;;7.13;71.23;98124.53;4397994;32;34096;-87
2023/12/02 09:03:02;;;;;;;;;;;;;;;7.21;70.73;98118.81;4398520;32;34287;-86
2023/12/02 09:05:30;;;;;;;;;;;;;;;7.18;71.54;98127.72;4408410;32;32135;-87
2023/12/02 09:08:00;;;;;;;;;;;;;;;7.57;70.28;98119.34;4397510;32;34411;-87
2023/12/02 09:10:28;;;;;;;;;;;;;;;7.51;70.17;98118.84;4398026;32;35032;-87
2023/12/02 09:12:55;;;;;;;;;;;;;;;7.54;70.36;98121.28;4409860;32;34585;-87
2023/12/02 09:15:23;;;;;;;;;;;;;;;7.41;70.43;98116.75;4398493;32;33182;-87
2023/12/02 09:18:09;;;;;;;;;;;;;;;7.41;70.49;98111.50;4406664;32;32814;-87
2023/12/02 09:20:47;;;;;;;;;;;;;;;7.26;71.21;98119.41;4427404;32;34283;-87
2023/12/02 09:23:15;;;;;;;;;;;;;;;7.85;69.40;98118.56;4413253;32;35497;-87
2023/12/02 09:25:44;;;;;;;;;;;;;;;7.92;68.83;98113.78;4397971;32;33419;-87
2023/12/02 09:28:14;;;;;;;;;;;;;;;7.71;69.84;98113.28;4432844;32;33908;-87
2023/12/02 09:30:50;;;;;;;;;;;;;;;7.56;69.74;98109.75;4419235;32;33707;-86
2023/12/02 09:33:32;;;;;;;;;;;;;;;7.83;69.31;98111.69;4409508;32;33225;-87
2023/12/02 09:36:03;;;;;;;;;;;;;;;7.47;70.13;98110.31;4416203;32;30922;-87
2023/12/02 09:38:32;;;;;;;;;;;;;;;7.86;69.60;98101.00;4416410;32;33803;-87
2023/12/02 09:41:09;;;;;;;;;;;;;;;8.10;68.47;98114.47;4397570;32;33686;-85
2023/12/02 09:43:43;;;;;;;;;;;;;;;7.95;68.35;98117.06;4425175;32;32972;-87
2023/12/02 09:46:16;;;;;;;;;;;;;;;8.18;68.52;98117.47;4396026;32;32050;-86
2023/12/02 09:48:44;;;;;;;;;;;;;;;8.30;67.65;98108.81;4414788;32;32887;-86
2023/12/02 09:51:14;;;;;;;;;;;;;;;7.83;68.61;98117.81;4409511;32;33784;-83
2023/12/02 09:53:45;;;;;;;;;;;;;;;8.26;67.77;98099.44;4422839;32;34736;-85
2023/12/02 09:56:20;;;;;;;;;;;;;;;7.84;69.75;98097.63;4418146;32;32014;-84
2023/12/02 09:58:49;;;;;;;;;;;;;;;8.28;67.70;98073.91;4411375;32;33608;-86
2023/12/02 10:01:18;;;;;;;;;;;;;;;7.88;69.00;98084.22;4388848;32;33057;-88
2023/12/02 10:03:46;;;;;;;;;;;;;;;8.27;68.16;98074.84;4399351;32;33422;-89
2023/12/02 10:06:18;;;;;;;;;;;;;;;8.17;68.58;98063.22;4404653;32;32542;-89
2023/12/02 10:09:01;;;;;;;;;;;;;;;8.09;68.67;98073.34;4413782;32;32467;-86
2023/12/02 10:11:48;;;;;;;;;;;;;;;8.29;68.61;98070.31;4402711;32;34610;-88
2023/12/02 10:14:16;;;;;;;;;;;;;;;8.14;68.87;98066.00;4424728;32;34550;-89
2023/12/02 10:16:48;;;;;;;;;;;;;;;8.37;68.71;98062.00;4378807;32;32628;-89
2023/12/02 10:19:20;;;;;;;;;;;;;;;8.46;68.54;98058.78;4404842;32;33620;-87
2023/12/02 10:21:47;;;;;;;;;;;;;;;8.33;68.58;98058.69;4415293;32;33630;-88
2023/12/02 10:24:15;;;;;;;;;;;;;;;8.25;69.23;98055.66;4404748;32;34277;-89
2023/12/02 10:40:32;;;;;;;;;;;;;;;8.86;67.13;98049.19;4415909;32;32693;-83
2023/12/02 10:43:26;;;;;;;;;;;;;;;8.68;68.04;98042.47;4403807;32;34051;-81
2023/12/02 10:45:53;;;;;;;;;;;;;;;8.27;69.29;98048.56;4369602;32;31580;-83
2023/12/02 10:48:22;;;;;;;;;;;;;;;8.66;67.65;97970.69;4407746;32;34059;-81
2023/12/02 10:50:49;;;;;;;;;;;;;;;7.67;70.48;98048.72;4414242;32;33183;-81
2023/12/02 10:53:19;;;;;;;;;;;;;;;8.20;69.62;98007.78;4417923;32;33980;-80
2023/12/02 10:55:50;;;;;;;;;;;;;;;7.63;70.77;98016.53;4405820;32;33937;-82
2023/12/02 10:58:18;;;;;;;;;;;;;;;7.73;71.38;98027.31;4405963;32;31288;-81
2023/12/02 11:00:47;;;;;;;;;;;;;;;8.29;69.07;97999.31;4401942;32;32836;-80
2023/12/02 11:03:20;;;;;;;;;;;;;;;7.74;71.32;98015.03;4382836;32;32909;-80
2023/12/02 11:05:51;;;;;;;;;;;;;;;8.15;69.73;97994.09;4406816;32;30840;-80
2023/12/02 11:08:19;;;;;;;;;;;;;;;7.73;71.28;97990.53;4417837;32;33334;-81
2023/12/02 11:10:48;;;;;;;;;;;;;;;7.52;71.60;97983.97;4405209;32;33082;-80
2023/12/02 11:13:15;;;;;;;;;;;;;;;7.87;70.82;97966.03;4405729;32;34300;-80
2023/12/02 11:15:53;;;;;;;;;;;;;;;8.14;70.02;97977.47;4399112;32;33629;-80
2023/12/02 11:18:29;;;;;;;;;;;;;;;7.98;69.62;97962.78;4409473;32;32220;-81
2023/12/02 11:21:00;;;;;;;;;;;;;;;8.41;69.06;97969.66;4389297;32;33550;-80
2023/12/02 11:23:36;;;;;;;;;;;;;;;8.27;68.47;97977.56;4405241;32;31985;-80
2023/12/02 11:26:15;;;;;;;;;;;;;;;8.75;67.41;97945.59;4417591;32;33371;-80
2023/12/02 11:29:02;;;;;;;;;;;;;;;8.25;69.55;97966.28;4417336;32;33255;-80
2023/12/02 11:31:50;;;;;;;;;;;;;;;8.34;68.48;97963.06;4390926;32;32945;-82
2023/12/02 11:34:27;;;;;;;;;;;;;;;8.43;68.57;97966.91;4402742;32;33292;-82
2023/12/02 11:37:21;;;;;;;;;;;;;;;8.29;68.51;97965.13;4405274;32;33515;-82
2023/12/02 11:40:03;;;;;;;;;;;;;;;8.44;68.20;97961.56;4403670;32;32055;-82
2023/12/02 11:42:34;;;;;;;;;;;;;;;8.40;68.93;97980.25;4390909;32;33598;-82
2023/12/02 11:45:05;;;;;;;;;;;;;;;8.53;68.63;97990.84;4378299;32;33120;-80
2023/12/02 11:48:00;;;;;;;;;;;;;;;8.59;68.38;98001.84;4404860;32;33792;-81
2023/12/02 11:50:31;;;;;;;;;;;;;;;8.66;68.51;98018.06;4402667;32;33426;-81
2023/12/02 11:53:20;;;;;;;;;;;;;;;8.62;67.92;98019.19;4419321;32;34387;-81
2023/12/02 11:55:56;;;;;;;;;;;;;;;8.43;68.99;98001.97;4381228;32;32916;-80
2023/12/02 11:58:33;;;;;;;;;;;;;;;8.67;67.98;97988.19;4423582;32;33588;-80
2023/12/02 12:01:12;;;;;;;;;;;;;;;8.66;68.34;97981.22;4419809;32;32101;-80
2023/12/02 12:03:53;;;;;;;;;;;;;;;9.01;66.60;97970.16;4397256;32;32604;-80
2023/12/02 12:06:47;;;;;;;;;;;;;;;8.58;67.86;97989.59;4406849;32;34227;-80
2023/12/02 12:09:21;;;;;;;;;;;;;;;8.67;67.96;97988.19;4417027;32;33069;-80
2023/12/02 12:11:52;;;;;;;;;;;;;;;8.70;67.75;97977.47;4394668;32;33766;-80
2023/12/02 12:14:20;;;;;;;;;;;;;;;8.61;68.44;97988.59;4406236;32;33421;-80
2023/12/02 12:16:50;;;;;;;;;;;;;;;8.68;68.66;98005.63;4419325;32;34422;-80
2023/12/02 12:19:17;;;;;;;;;;;;;;;8.71;68.59;98008.09;4408648;32;34112;-80
2023/12/02 12:21:47;;;;;;;;;;;;;;;8.86;67.57;98003.59;4419584;32;33575;-80
2023/12/02 12:24:14;;;;;;;;;;;;;;;8.46;69.16;98009.66;4398840;32;33775;-80
2023/12/02 12:26:42;;;;;;;;;;;;;;;8.56;68.36;98001.19;4393346;32;32607;-80
2023/12/02 12:29:10;;;;;;;;;;;;;;;8.76;67.89;97971.78;4405615;32;34031;-80
2023/12/02 12:31:38;;;;;;;;;;;;;;;8.90;67.17;97963.84;4406466;32;31266;-80
2023/12/02 12:34:12;;;;;;;;;;;;;;;8.61;66.47;97967.53;4415785;32;32658;-80
2023/12/02 12:36:40;;;;;;;;;;;;;;;8.51;67.53;97964.66;4403998;32;33144;-80
2023/12/02 12:39:09;;;;;;;;;;;;;;;8.43;67.91;97978.28;4406546;32;34186;-80
2023/12/02 12:41:37;;;;;;;;;;;;;;;8.38;68.29;97959.31;4400432;32;33385;-80
2023/12/02 12:44:05;;;;;;;;;;;;;;;8.46;66.98;97964.09;4380220;32;34234;-80
2023/12/02 12:46:33;;;;;;;;;;;;;;;8.26;68.49;97968.00;4400006;32;33600;-81
2023/12/02 12:49:06;;;;;;;;;;;;;;;8.20;68.19;97963.94;4407432;32;34457;-80
2023/12/02 12:51:35;;;;;;;;;;;;;;;8.74;66.37;97943.91;4416724;32;32540;-80
2023/12/02 12:54:08;;;;;;;;;;;;;;;8.65;66.50;97940.09;4415755;32;33680;-80
2023/12/02 12:56:39;;;;;;;;;;;;;;;8.62;65.91;97942.91;4393271;32;33477;-80
2023/12/02 12:59:12;;;;;;;;;;;;;;;8.22;67.71;97945.44;4408550;32;34883;-80
2023/12/02 13:01:45;;;;;;;;;;;;;;;8.39;67.00;97941.75;4407479;32;35507;-80
2023/12/02 13:04:20;;;;;;;;;;;;;;;8.26;68.09;97962.72;4403837;32;34003;-80
2023/12/02 13:06:48;;;;;;;;;;;;;;;8.06;68.38;97986.78;4412780;32;33389;-80
2023/12/02 13:09:17;;;;;;;;;;;;;;;7.77;68.37;98001.72;4407709;32;34333;-80
2023/12/02 13:12:15;;;;;;;;;;;;;;;7.82;68.44;98007.53;4416756;32;34534;-80
2023/12/02 13:14:52;;;;;;;;;;;;;;;7.37;70.65;98022.50;4404532;32;34039;-81
2023/12/02 13:17:20;;;;;;;;;;;;;;;7.41;69.47;98014.34;4400725;32;34074;-80
2023/12/02 13:19:47;;;;;;;;;;;;;;;7.30;70.26;98015.91;4413777;32;33517;-80
2023/12/02 13:22:16;;;;;;;;;;;;;;;7.19;70.32;98013.91;4404134;32;31763;-80
2023/12/02 13:24:51;;;;;;;;;;;;;;;6.67;71.40;98003.78;4376667;32;32970;-80
2023/12/02 13:27:19;;;;;;;;;;;;;;;7.01;70.65;97992.19;4409745;32;34231;-80